createdAt,value
2016-05-20T00:00:31.113Z,999.84
2016-05-20T00:01:31.132Z,999.86
2016-05-20T00:02:31.150Z,999.83
2016-05-20T00:03:31.168Z,999.83
2016-05-20T00:04:31.186Z,999.81
2016-05-20T00:05:31.204Z,999.77
2016-05-20T00:06:31.223Z,999.83
2016-05-20T00:07:31.242Z,999.78
2016-05-20T00:08:31.259Z,999.81
2016-05-20T00:09:31.262Z,999.82
2016-05-20T00:10:31.297Z,999.82
2016-05-20T00:11:31.299Z,999.85
2016-05-20T00:12:31.333Z,999.78
2016-05-20T00:13:31.335Z,999.81
2016-05-20T00:14:31.354Z,999.81
2016-05-20T00:15:31.372Z,999.81
2016-05-20T00:16:31.391Z,999.83
2016-05-20T00:17:31.409Z,999.82
2016-05-20T00:18:31.427Z,999.77
2016-05-20T00:19:31.446Z,999.85
2016-05-20T00:20:31.464Z,999.87
2016-05-20T00:21:31.482Z,999.85
2016-05-20T00:22:31.500Z,999.84
2016-05-20T00:23:31.519Z,999.8
2016-05-20T00:24:31.537Z,999.82
2016-05-20T00:25:31.555Z,999.82
2016-05-20T00:26:31.557Z,999.8
2016-05-20T00:27:31.592Z,999.82
2016-05-20T00:28:31.595Z,999.81
2016-05-20T00:29:31.629Z,999.87
2016-05-20T00:30:31.632Z,999.85
2016-05-20T00:31:31.649Z,999.86
2016-05-20T00:32:31.668Z,999.83
2016-05-20T00:33:31.687Z,999.81
2016-05-20T00:34:31.705Z,999.83
2016-05-20T00:35:31.723Z,999.84
2016-05-20T00:36:31.726Z,999.81
2016-05-20T00:37:31.759Z,999.84
2016-05-20T00:38:31.778Z,999.84
2016-05-20T00:39:31.812Z,999.83
2016-05-20T00:40:31.814Z,999.87
2016-05-20T00:41:31.833Z,999.89
2016-05-20T00:42:31.850Z,999.89
2016-05-20T00:43:31.853Z,999.91
2016-05-20T00:44:31.889Z,999.87
2016-05-20T00:45:31.891Z,999.89
2016-05-20T00:46:31.908Z,999.89
2016-05-20T00:47:31.927Z,999.88
2016-05-20T00:48:31.945Z,999.9
2016-05-20T00:49:31.964Z,999.84
2016-05-20T00:50:31.982Z,999.85
2016-05-20T00:51:32.000Z,999.82
2016-05-20T00:52:32.019Z,999.79
2016-05-20T00:53:32.037Z,999.75
2016-05-20T00:54:32.055Z,999.75
2016-05-20T00:55:32.074Z,999.74
2016-05-20T00:56:32.091Z,999.72
2016-05-20T00:57:32.094Z,999.72
2016-05-20T00:58:32.113Z,999.71
2016-05-20T00:59:32.132Z,999.69
2016-05-20T01:00:32.149Z,999.69
2016-05-20T01:01:32.168Z,999.69
2016-05-20T01:02:32.187Z,999.69
2016-05-20T01:03:32.205Z,999.69
2016-05-20T01:04:32.207Z,999.67
2016-05-20T01:05:32.241Z,999.64
2016-05-20T01:06:32.259Z,999.62
2016-05-20T01:07:32.262Z,999.64
2016-05-20T01:08:32.281Z,999.6
2016-05-20T01:09:32.298Z,999.64
2016-05-20T01:10:32.317Z,999.64
2016-05-20T01:11:32.335Z,999.6
2016-05-20T01:12:32.353Z,999.67
2016-05-20T01:13:32.373Z,999.64
2016-05-20T01:14:32.389Z,999.64
2016-05-20T01:15:32.424Z,999.66
2016-05-20T01:16:32.427Z,999.63
2016-05-20T01:17:32.445Z,999.64
2016-05-20T01:18:32.448Z,999.58
2016-05-20T01:19:32.466Z,999.63
2016-05-20T01:20:32.485Z,999.59
2016-05-20T01:21:32.502Z,999.53
2016-05-20T01:22:32.521Z,999.58
2016-05-20T01:23:32.539Z,999.54
2016-05-20T01:24:32.557Z,999.54
2016-05-20T01:25:32.576Z,999.52
2016-05-20T01:26:32.594Z,999.51
2016-05-20T01:27:32.613Z,999.53
2016-05-20T01:28:32.616Z,999.53
2016-05-20T01:29:32.649Z,999.54
2016-05-20T01:30:32.652Z,999.49
2016-05-20T01:31:32.686Z,999.51
2016-05-20T01:32:32.688Z,999.51
2016-05-20T01:33:32.707Z,999.5
2016-05-20T01:34:32.726Z,999.47
2016-05-20T01:35:32.743Z,999.4
2016-05-20T01:36:32.762Z,999.41
2016-05-20T01:37:32.796Z,999.39
2016-05-20T01:38:32.798Z,999.36
2016-05-20T01:39:32.817Z,999.35
2016-05-20T01:40:32.834Z,999.35
2016-05-20T01:41:32.854Z,999.31
2016-05-20T01:42:32.857Z,999.31
2016-05-20T01:43:32.874Z,999.32
2016-05-20T01:44:32.893Z,999.3
2016-05-20T01:45:32.927Z,999.29
2016-05-20T01:46:32.930Z,999.27
2016-05-20T01:47:32.948Z,999.26
2016-05-20T01:48:32.966Z,999.3
2016-05-20T01:49:32.984Z,999.33
2016-05-20T01:50:33.002Z,999.33
2016-05-20T01:51:33.005Z,999.34
2016-05-20T01:52:33.024Z,999.38
2016-05-20T01:53:33.057Z,999.37
2016-05-20T01:54:33.060Z,999.38
2016-05-20T01:55:33.094Z,999.4
2016-05-20T01:56:33.113Z,999.41
2016-05-20T01:57:33.115Z,999.4
2016-05-20T01:58:33.133Z,999.43
2016-05-20T01:59:33.152Z,999.41
2016-05-20T02:00:33.171Z,999.42
2016-05-20T02:01:33.188Z,999.39
2016-05-20T02:02:33.207Z,999.41
2016-05-20T02:03:33.225Z,999.41
2016-05-20T02:04:33.243Z,999.43
2016-05-20T02:05:33.262Z,999.46
2016-05-20T02:06:33.279Z,999.43
2016-05-20T02:07:33.298Z,999.43
2016-05-20T02:08:33.301Z,999.45
2016-05-20T02:09:33.601Z,999.43
2016-05-20T02:10:33.354Z,999.47
2016-05-20T02:11:33.357Z,999.47
2016-05-20T02:12:33.375Z,999.5
2016-05-20T02:13:33.393Z,999.55
2016-05-20T02:14:33.411Z,999.57
2016-05-20T02:15:33.428Z,999.54
2016-05-20T02:16:33.432Z,999.58
2016-05-20T02:17:33.450Z,999.59
2016-05-20T02:18:33.469Z,999.59
2016-05-20T02:19:33.487Z,999.61
2016-05-20T02:20:33.521Z,999.62
2016-05-20T02:21:33.524Z,999.6
2016-05-20T02:22:33.541Z,999.62
2016-05-20T02:23:33.561Z,999.64
2016-05-20T02:24:33.578Z,999.63
2016-05-20T02:25:33.597Z,999.62
2016-05-20T02:26:33.616Z,999.64
2016-05-20T02:27:33.633Z,999.67
2016-05-20T02:28:33.652Z,999.62
2016-05-20T02:29:33.670Z,999.65
2016-05-20T02:30:33.688Z,999.68
2016-05-20T02:31:33.707Z,999.67
2016-05-20T02:32:33.709Z,999.68
2016-05-20T02:33:33.774Z,999.64
2016-05-20T02:34:33.745Z,999.68
2016-05-20T02:35:33.779Z,999.66
2016-05-20T02:36:33.782Z,999.71
2016-05-20T02:37:33.848Z,999.75
2016-05-20T02:38:33.820Z,999.73
2016-05-20T02:39:33.916Z,999.71
2016-05-20T02:40:33.856Z,999.73
2016-05-20T02:41:33.874Z,999.78
2016-05-20T02:42:33.893Z,999.76
2016-05-20T02:43:33.911Z,999.79
2016-05-20T02:44:33.929Z,999.73
2016-05-20T02:45:33.931Z,999.77
2016-05-20T02:46:33.966Z,999.77
2016-05-20T02:47:33.969Z,999.78
2016-05-20T02:48:33.987Z,999.78
2016-05-20T02:49:34.005Z,999.76
2016-05-20T02:50:34.023Z,999.8
2016-05-20T02:51:34.042Z,999.8
2016-05-20T02:52:34.061Z,999.77
2016-05-20T02:53:34.078Z,999.75
2016-05-20T02:54:34.097Z,999.78
2016-05-20T02:55:34.116Z,999.77
2016-05-20T02:56:34.133Z,999.76
2016-05-20T02:57:34.136Z,999.72
2016-05-20T02:58:34.169Z,999.74
2016-05-20T02:59:34.172Z,999.71
2016-05-20T03:00:34.191Z,999.73
2016-05-20T03:01:34.210Z,999.68
2016-05-20T03:02:34.228Z,999.71
2016-05-20T03:03:34.245Z,999.72
2016-05-20T03:04:34.265Z,999.73
2016-05-20T03:05:34.282Z,999.76
2016-05-20T03:06:34.301Z,999.72
2016-05-20T03:07:34.319Z,999.72
2016-05-20T03:08:34.337Z,999.74
2016-05-20T03:09:34.403Z,999.78
2016-05-20T03:10:34.374Z,999.8
2016-05-20T03:11:34.392Z,999.84
2016-05-20T03:12:34.395Z,999.82
2016-05-20T03:13:34.413Z,999.83
2016-05-20T03:14:34.447Z,999.84
2016-05-20T03:15:34.451Z,999.85
2016-05-20T03:16:34.468Z,999.85
2016-05-20T03:17:34.486Z,999.89
2016-05-20T03:18:34.506Z,999.93
2016-05-20T03:19:34.523Z,999.96
2016-05-20T03:20:34.541Z,999.95
2016-05-20T03:21:34.560Z,999.94
2016-05-20T03:22:34.578Z,1000
2016-05-20T03:23:34.596Z,999.94
2016-05-20T03:24:34.739Z,999.93
2016-05-20T03:25:34.634Z,999.94
2016-05-20T03:26:34.651Z,999.94
2016-05-20T03:27:34.669Z,999.91
2016-05-20T03:28:34.688Z,999.93
2016-05-20T03:29:34.691Z,999.96
2016-05-20T03:30:34.725Z,999.96
2016-05-20T03:31:34.743Z,999.92
2016-05-20T03:32:34.746Z,999.98
2016-05-20T03:33:34.763Z,999.99
2016-05-20T03:34:34.782Z,999.99
2016-05-20T03:35:34.801Z,1000.01
2016-05-20T03:36:34.818Z,999.99
2016-05-20T03:37:34.837Z,1000.01
2016-05-20T03:38:34.856Z,1000.03
2016-05-20T03:39:34.874Z,1000.01
2016-05-20T03:40:34.892Z,1000.07
2016-05-20T03:41:34.910Z,1000.05
2016-05-20T03:42:34.929Z,1000.06
2016-05-20T03:43:34.948Z,1000.07
2016-05-20T03:44:34.965Z,1000.13
2016-05-20T03:45:34.984Z,1000.17
2016-05-20T03:46:35.002Z,1000.17
2016-05-20T03:47:35.020Z,1000.17
2016-05-20T03:48:35.038Z,1000.18
2016-05-20T03:49:35.056Z,1000.2
2016-05-20T03:50:35.075Z,1000.19
2016-05-20T03:51:35.094Z,1000.2
2016-05-20T03:52:35.112Z,1000.18
2016-05-20T03:53:35.115Z,1000.18
2016-05-20T03:54:35.149Z,1000.22
2016-05-20T03:55:35.167Z,1000.2
2016-05-20T03:56:35.170Z,1000.2
2016-05-20T03:57:35.188Z,1000.26
2016-05-20T03:58:35.206Z,1000.27
2016-05-20T03:59:35.224Z,1000.29
2016-05-20T04:00:35.258Z,1000.34
2016-05-20T04:01:35.261Z,1000.29
2016-05-20T04:02:35.280Z,1000.3
2016-05-20T04:03:35.298Z,1000.29
2016-05-20T04:04:35.316Z,1000.31
2016-05-20T04:05:35.335Z,1000.35
2016-05-20T04:06:35.353Z,1000.35
2016-05-20T04:07:35.371Z,1000.35
2016-05-20T04:08:35.389Z,1000.36
2016-05-20T04:09:35.408Z,1000.37
2016-05-20T04:10:35.426Z,1000.33
2016-05-20T04:11:35.445Z,1000.37
2016-05-20T04:12:35.462Z,1000.41
2016-05-20T04:13:35.481Z,1000.42
2016-05-20T04:14:35.499Z,1000.41
2016-05-20T04:15:35.518Z,1000.39
2016-05-20T04:16:35.537Z,1000.41
2016-05-20T04:17:35.539Z,1000.43
2016-05-20T04:18:35.557Z,1000.46
2016-05-20T04:19:35.576Z,1000.44
2016-05-20T04:20:35.594Z,1000.46
2016-05-20T04:21:35.612Z,1000.46
2016-05-20T04:22:35.630Z,1000.42
2016-05-20T04:23:35.648Z,1000.48
2016-05-20T04:24:36.308Z,1000.47
2016-05-20T04:25:35.685Z,1000.53
2016-05-20T04:26:35.703Z,1000.53
2016-05-20T04:27:35.721Z,1000.55
2016-05-20T04:28:35.740Z,1000.55
2016-05-20T04:29:35.759Z,1000.59
2016-05-20T04:30:35.777Z,1000.57
2016-05-20T04:31:35.795Z,1000.59
2016-05-20T04:32:35.813Z,1000.61
2016-05-20T04:33:35.832Z,1000.63
2016-05-20T04:34:35.850Z,1000.66
2016-05-20T04:35:35.868Z,1000.67
2016-05-20T04:36:35.887Z,1000.72
2016-05-20T04:37:35.904Z,1000.7
2016-05-20T04:38:35.924Z,1000.67
2016-05-20T04:39:35.942Z,1000.65
2016-05-20T04:40:35.960Z,1000.67
2016-05-20T04:41:35.979Z,1000.64
2016-05-20T04:42:35.996Z,1000.69
2016-05-20T04:43:36.015Z,1000.65
2016-05-20T04:44:36.034Z,1000.66
2016-05-20T04:45:36.051Z,1000.63
2016-05-20T04:46:36.070Z,1000.7
2016-05-20T04:47:36.087Z,1000.69
2016-05-20T04:48:36.106Z,1000.74
2016-05-20T04:49:36.125Z,1000.79
2016-05-20T04:50:36.142Z,1000.75
2016-05-20T04:51:36.162Z,1000.8
2016-05-20T04:52:36.180Z,1000.77
2016-05-20T04:53:36.198Z,1000.81
2016-05-20T04:54:36.217Z,1000.85
2016-05-20T04:55:36.234Z,1000.87
2016-05-20T04:56:36.252Z,1000.89
2016-05-20T04:57:36.271Z,1000.87
2016-05-20T04:58:36.289Z,1000.9
2016-05-20T04:59:36.324Z,1000.87
2016-05-20T05:00:36.341Z,1000.92
2016-05-20T05:01:36.361Z,1000.87
2016-05-20T05:02:36.377Z,1000.88
2016-05-20T05:03:36.396Z,1000.86
2016-05-20T05:04:36.416Z,1000.84
2016-05-20T05:05:36.418Z,1000.81
2016-05-20T05:06:36.452Z,1000.82
2016-05-20T05:07:36.470Z,1000.85
2016-05-20T05:08:36.488Z,1000.88
2016-05-20T05:09:36.585Z,1000.83
2016-05-20T05:10:36.524Z,1000.81
2016-05-20T05:11:36.543Z,1000.78
2016-05-20T05:12:36.561Z,1000.83
2016-05-20T05:13:36.579Z,1000.83
2016-05-20T05:14:36.598Z,1000.84
2016-05-20T05:15:36.632Z,1000.85
2016-05-20T05:16:36.651Z,1000.88
2016-05-20T05:17:36.668Z,1000.89
2016-05-20T05:18:36.687Z,1000.88
2016-05-20T05:19:36.706Z,1000.84
2016-05-20T05:20:36.724Z,1000.84
2016-05-20T05:21:36.742Z,1000.8
2016-05-20T05:22:36.760Z,1000.83
2016-05-20T05:23:36.779Z,1000.83
2016-05-20T05:24:36.797Z,1000.85
2016-05-20T05:25:36.814Z,1000.87
2016-05-20T05:26:36.849Z,1000.81
2016-05-20T05:27:36.852Z,1000.87
2016-05-20T05:28:36.886Z,1000.81
2016-05-20T05:29:36.905Z,1000.8
2016-05-20T05:30:36.922Z,1000.81
2016-05-20T05:31:36.925Z,1000.82
2016-05-20T05:32:36.959Z,1000.78
2016-05-20T05:33:36.978Z,1000.85
2016-05-20T05:34:36.996Z,1000.89
2016-05-20T05:35:37.014Z,1000.86
2016-05-20T05:36:37.032Z,1000.86
2016-05-20T05:37:37.051Z,1000.82
2016-05-20T05:38:37.069Z,1000.89
2016-05-20T05:39:37.102Z,1000.89
2016-05-20T05:40:37.122Z,1000.96
2016-05-20T05:41:37.140Z,1000.98
2016-05-20T05:42:37.157Z,1001.02
2016-05-20T05:43:37.177Z,1000.97
2016-05-20T05:44:37.194Z,1001
2016-05-20T05:45:37.213Z,1001
2016-05-20T05:46:37.231Z,1001.01
2016-05-20T05:47:37.249Z,1001.02
2016-05-20T05:48:37.283Z,1001.03
2016-05-20T05:49:37.302Z,1001.13
2016-05-20T05:50:37.320Z,1001.11
2016-05-20T05:51:37.339Z,1001.11
2016-05-20T05:52:37.356Z,1001.16
2016-05-20T05:53:37.375Z,1001.17
2016-05-20T05:54:37.393Z,1001.14
2016-05-20T05:55:37.411Z,1001.17
2016-05-20T05:56:37.431Z,1001.21
2016-05-20T05:57:37.448Z,1001.21
2016-05-20T05:58:37.480Z,1001.19
2016-05-20T05:59:37.543Z,1001.18
2016-05-20T06:00:37.605Z,1001.18
2016-05-20T06:01:37.684Z,1001.2
2016-05-20T06:02:37.731Z,1001.25
2016-05-20T06:03:37.801Z,1001.22
2016-05-20T06:04:37.835Z,1001.23
2016-05-20T06:05:37.870Z,1001.14
2016-05-20T06:06:37.905Z,1001.15
2016-05-20T06:07:37.939Z,1001.15
2016-05-20T06:08:37.971Z,1001.14
2016-05-20T06:09:38.010Z,1001.17
2016-05-20T06:10:38.018Z,1001.11
2016-05-20T06:11:38.043Z,1001.17
2016-05-20T06:12:38.066Z,1001.12
2016-05-20T06:13:38.105Z,1001.1
2016-05-20T06:14:38.125Z,1001.04
2016-05-20T06:15:38.145Z,1001.09
2016-05-20T06:16:38.165Z,1001.04
2016-05-20T06:17:38.186Z,1001.02
2016-05-20T06:18:38.207Z,1001.07
2016-05-20T06:19:38.224Z,1001.05
2016-05-20T06:20:38.245Z,1000.99
2016-05-20T06:21:38.263Z,1000.99
2016-05-20T06:22:38.283Z,1001.02
2016-05-20T06:23:38.317Z,1001.02
2016-05-20T06:24:38.335Z,1000.95
2016-05-20T06:25:38.355Z,1001.02
2016-05-20T06:26:38.373Z,1000.97
2016-05-20T06:27:38.392Z,1001.05
2016-05-20T06:28:38.411Z,1000.89
2016-05-20T06:29:38.428Z,1000.91
2016-05-20T06:30:38.447Z,1000.9
2016-05-20T06:31:38.481Z,1000.95
2016-05-20T06:32:38.500Z,1000.99
2016-05-20T06:33:38.517Z,1000.98
2016-05-20T06:34:38.536Z,1000.98
2016-05-20T06:35:38.555Z,1000.95
2016-05-20T06:36:38.573Z,1001.02
2016-05-20T06:37:38.591Z,1001.05
2016-05-20T06:38:38.609Z,1001.03
2016-05-20T06:39:38.628Z,1001.03
2016-05-20T06:40:38.646Z,1001.05
2016-05-20T06:41:38.679Z,1001.06
2016-05-20T06:42:38.699Z,1001.04
2016-05-20T06:43:38.716Z,1001.03
2016-05-20T06:44:38.735Z,1001.08
2016-05-20T06:45:38.752Z,1001.01
2016-05-20T06:46:38.771Z,1001.02
2016-05-20T06:47:38.790Z,1001.05
2016-05-20T06:48:38.807Z,1000.97
2016-05-20T06:49:38.826Z,1001
2016-05-20T06:50:38.876Z,1000.95
2016-05-20T06:51:38.879Z,1000.96
2016-05-20T06:52:38.896Z,1000.94
2016-05-20T06:53:38.915Z,1000.94
2016-05-20T06:54:39.199Z,1001
2016-05-20T06:55:38.952Z,1001.07
2016-05-20T06:56:38.970Z,1001.01
2016-05-20T06:57:38.989Z,1001.05
2016-05-20T06:58:39.007Z,1001.06
2016-05-20T06:59:39.040Z,1001.1
2016-05-20T07:00:39.059Z,1001.09
2016-05-20T07:01:39.093Z,1001.13
2016-05-20T07:02:39.095Z,1001.11
2016-05-20T07:03:39.114Z,1001.06
2016-05-20T07:04:39.132Z,1001.13
2016-05-20T07:05:39.150Z,1001.06
2016-05-20T07:06:39.169Z,1001.1
2016-05-20T07:07:39.203Z,1001.1
2016-05-20T07:08:39.221Z,1001.06
2016-05-20T07:09:39.239Z,1001.09
2016-05-20T07:10:39.258Z,1001.1
2016-05-20T07:11:39.277Z,1001.07
2016-05-20T07:12:39.310Z,1001.04
2016-05-20T07:13:39.313Z,1001.06
2016-05-20T07:14:39.347Z,1001.02
2016-05-20T07:15:39.366Z,1001
2016-05-20T07:16:39.383Z,1001.11
2016-05-20T07:17:39.402Z,1001.09
2016-05-20T07:18:39.421Z,1001.09
2016-05-20T07:19:39.438Z,1000.99
2016-05-20T07:20:39.456Z,1001.09
2016-05-20T07:21:39.490Z,1001.08
2016-05-20T07:22:39.509Z,1001.03
2016-05-20T07:23:39.527Z,1001.06
2016-05-20T07:24:39.545Z,1001.12
2016-05-20T07:25:39.579Z,1001.13
2016-05-20T07:26:39.598Z,1001.03
2016-05-20T07:27:39.616Z,1001.09
2016-05-20T07:28:39.634Z,1001.07
2016-05-20T07:29:39.653Z,1001.08
2016-05-20T07:30:39.671Z,1001.11
2016-05-20T07:31:39.690Z,1001.06
2016-05-20T07:32:39.739Z,1001.08
2016-05-20T07:33:39.742Z,1001.03
2016-05-20T07:34:39.760Z,1001.01
2016-05-20T07:35:39.778Z,1001.08
2016-05-20T07:36:39.796Z,1001.04
2016-05-20T07:37:39.814Z,1001.07
2016-05-20T07:38:39.833Z,1001.08
2016-05-20T07:39:39.852Z,1001.04
2016-05-20T07:40:39.869Z,1001.06
2016-05-20T07:41:39.903Z,1001.03
2016-05-20T07:42:39.922Z,1001.03
2016-05-20T07:43:39.941Z,1001.05
2016-05-20T07:44:39.958Z,1001.12
2016-05-20T07:45:39.993Z,1001.02
2016-05-20T07:46:39.996Z,1001.02
2016-05-20T07:47:40.029Z,1001.04
2016-05-20T07:48:40.047Z,1001.05
2016-05-20T07:49:40.066Z,1001.05
2016-05-20T07:50:40.100Z,1001.01
2016-05-20T07:51:40.103Z,1001.06
2016-05-20T07:52:40.136Z,1001.06
2016-05-20T07:53:40.154Z,1001.14
2016-05-20T07:54:40.548Z,1001.13
2016-05-20T07:55:40.191Z,1001.13
2016-05-20T07:56:40.209Z,1001.18
2016-05-20T07:57:40.243Z,1001.25
2016-05-20T07:58:40.262Z,1001.26
2016-05-20T07:59:40.749Z,1001.21
2016-05-20T08:00:40.298Z,1001.28
2016-05-20T08:01:40.317Z,1001.25
2016-05-20T08:02:40.351Z,1001.2
2016-05-20T08:03:40.369Z,1001.18
2016-05-20T08:04:40.387Z,1001.2
2016-05-20T08:05:40.406Z,1001.19
2016-05-20T08:06:40.424Z,1001.23
2016-05-20T08:07:40.458Z,1001.23
2016-05-20T08:08:40.476Z,1001.27
2016-05-20T08:09:40.495Z,1001.27
2016-05-20T08:10:40.513Z,1001.34
2016-05-20T08:11:40.531Z,1001.33
2016-05-20T08:12:40.597Z,1001.4
2016-05-20T08:13:40.583Z,1001.3
2016-05-20T08:14:40.602Z,1001.24
2016-05-20T08:15:40.620Z,1001.34
2016-05-20T08:16:40.639Z,1001.37
2016-05-20T08:17:47.016Z,1001.36
2016-05-20T08:18:40.691Z,1001.34
2016-05-20T08:19:40.709Z,1001.41
2016-05-20T08:20:40.727Z,1001.43
2016-05-20T08:21:43.480Z,1001.44
2016-05-20T08:22:41.060Z,1001.41
2016-05-20T08:23:40.798Z,1001.49
2016-05-20T08:24:40.832Z,1001.5
2016-05-20T08:25:41.632Z,1001.43
2016-05-20T08:26:40.868Z,1001.43
2016-05-20T08:27:40.887Z,1001.48
2016-05-20T08:28:40.904Z,1001.46
2016-05-20T08:29:40.939Z,1001.45
2016-05-20T08:30:40.942Z,1001.45
2016-05-20T08:31:40.975Z,1001.53
2016-05-20T08:32:40.995Z,1001.44
2016-05-20T08:33:41.012Z,1001.47
2016-05-20T08:34:41.046Z,1001.43
2016-05-20T08:35:41.064Z,1001.42
2016-05-20T08:36:41.083Z,1001.35
2016-05-20T08:37:41.101Z,1001.4
2016-05-20T08:38:41.135Z,1001.39
2016-05-20T08:39:41.153Z,1001.39
2016-05-20T08:40:41.172Z,1001.35
2016-05-20T08:41:41.190Z,1001.31
2016-05-20T08:42:41.209Z,1001.3
2016-05-20T08:43:41.227Z,1001.36
2016-05-20T08:44:41.260Z,1001.37
2016-05-20T08:45:41.279Z,1001.36
2016-05-20T08:46:41.297Z,1001.35
2016-05-20T08:47:41.316Z,1001.28
2016-05-20T08:48:41.350Z,1001.32
2016-05-20T08:49:41.368Z,1001.34
2016-05-20T08:50:41.386Z,1001.28
2016-05-20T08:51:41.405Z,1001.33
2016-05-20T08:52:41.423Z,1001.3
2016-05-20T08:53:41.457Z,1001.28
2016-05-20T08:54:41.474Z,1001.23
2016-05-20T08:55:41.494Z,1001.24
2016-05-20T08:56:41.512Z,1001.25
2016-05-20T08:57:41.545Z,1001.24
2016-05-20T08:58:41.565Z,1001.21
2016-05-20T08:59:41.582Z,1001.23
2016-05-20T09:00:41.601Z,1001.2
2016-05-20T09:01:41.618Z,1001.21
2016-05-20T09:02:41.653Z,1001.2
2016-05-20T09:03:41.671Z,1001.18
2016-05-20T09:04:41.721Z,1001.14
2016-05-20T09:05:41.739Z,1001.17
2016-05-20T09:06:41.741Z,1001.13
2016-05-20T09:07:41.760Z,1001.13
2016-05-20T09:08:41.778Z,1001.11
2016-05-20T09:09:41.797Z,1001.09
2016-05-20T09:10:41.940Z,1001.13
2016-05-20T09:11:41.833Z,1001.19
2016-05-20T09:12:41.867Z,1001.23
2016-05-20T09:13:41.870Z,1001.24
2016-05-20T09:14:41.903Z,1001.21
2016-05-20T09:15:41.922Z,1001.16
2016-05-20T09:16:41.941Z,1001.2
2016-05-20T09:17:41.959Z,1001.19
2016-05-20T09:18:41.978Z,1001.22
2016-05-20T09:19:42.011Z,1001.19
2016-05-20T09:20:42.030Z,1001.31
2016-05-20T09:21:42.047Z,1001.21
2016-05-20T09:22:42.066Z,1001.27
2016-05-20T09:23:42.100Z,1001.25
2016-05-20T09:24:42.102Z,1001.2
2016-05-20T09:25:42.137Z,1001.19
2016-05-20T09:26:42.154Z,1001.2
2016-05-20T09:27:42.189Z,1001.22
2016-05-20T09:28:42.191Z,1001.2
2016-05-20T09:29:42.210Z,1001.18
2016-05-20T09:30:42.244Z,1001.17
2016-05-20T09:31:42.262Z,1001.14
2016-05-20T09:32:42.281Z,1001.15
2016-05-20T09:33:42.299Z,1001.13
2016-05-20T09:34:42.317Z,1001.15
2016-05-20T09:35:42.335Z,1001.12
2016-05-20T09:36:42.353Z,1001.12
2016-05-20T09:37:42.387Z,1001.16
2016-05-20T09:38:42.406Z,1001.11
2016-05-20T09:39:42.424Z,1001.13
2016-05-20T09:40:42.458Z,1001.12
2016-05-20T09:41:42.461Z,1001.07
2016-05-20T09:42:42.479Z,1001.13
2016-05-20T09:43:42.498Z,1001.13
2016-05-20T09:44:42.531Z,1001.14
2016-05-20T09:45:42.550Z,1001.15
2016-05-20T09:46:42.568Z,1001.18
2016-05-20T09:47:42.586Z,1001.18
2016-05-20T09:48:42.620Z,1001.16
2016-05-20T09:49:42.639Z,1001.2
2016-05-20T09:50:42.657Z,1001.16
2016-05-20T09:51:42.675Z,1001.2
2016-05-20T09:52:42.694Z,1001.17
2016-05-20T09:53:42.712Z,1001.21
2016-05-20T09:54:42.730Z,1001.28
2016-05-20T09:55:42.748Z,1001.22
2016-05-20T09:56:42.767Z,1001.23
2016-05-20T09:57:42.785Z,1001.26
2016-05-20T09:58:43.896Z,1001.24
2016-05-20T09:59:42.837Z,1001.22
2016-05-20T10:00:42.856Z,1001.19
2016-05-20T10:01:42.874Z,1001.22
2016-05-20T10:02:42.893Z,1001.26
2016-05-20T10:03:44.770Z,1001.27
2016-05-20T10:04:42.945Z,1001.25
2016-05-20T10:05:42.963Z,1001.2
2016-05-20T10:06:42.982Z,1001.23
2016-05-20T10:08:43.581Z,1001.26
2016-05-20T10:09:43.051Z,1001.27
2016-05-20T10:10:43.070Z,1001.42
2016-05-20T10:11:43.089Z,1001.33
2016-05-20T10:12:43.106Z,1001.34
2016-05-20T10:13:43.562Z,1001.32
2016-05-20T10:14:43.144Z,1001.33
2016-05-20T10:15:43.177Z,1001.31
2016-05-20T10:16:43.180Z,1001.35
2016-05-20T10:17:43.214Z,1001.33
2016-05-20T10:18:44.310Z,1001.29
2016-05-20T10:19:43.250Z,1001.25
2016-05-20T10:20:43.269Z,1001.23
2016-05-20T10:21:43.287Z,1001.16
2016-05-20T10:22:43.321Z,1001.18
2016-05-20T10:23:44.277Z,1001.21
2016-05-20T10:24:43.358Z,1001.15
2016-05-20T10:25:43.391Z,1001.19
2016-05-20T10:26:43.394Z,1001.12
2016-05-20T10:27:43.412Z,1001.15
2016-05-20T10:28:44.790Z,1001.15
2016-05-20T10:29:43.465Z,1001.16
2016-05-20T10:30:43.483Z,1001.16
2016-05-20T10:31:43.501Z,1001.19
2016-05-20T10:32:43.520Z,1001.19
2016-05-20T10:33:43.991Z,1001.22
2016-05-20T10:34:43.573Z,1001.21
2016-05-20T10:35:43.590Z,1001.18
2016-05-20T10:36:43.609Z,1001.19
2016-05-20T10:37:43.627Z,1001.22
2016-05-20T10:38:44.301Z,1001.22
2016-05-20T10:39:43.742Z,1001.19
2016-05-20T10:40:43.698Z,1001.2
2016-05-20T10:41:43.716Z,1001.2
2016-05-20T10:42:43.735Z,1001.25
2016-05-20T10:43:43.924Z,1001.24
2016-05-20T10:44:43.787Z,1001.28
2016-05-20T10:45:43.806Z,1001.28
2016-05-20T10:46:43.823Z,1001.31
2016-05-20T10:47:43.842Z,1001.31
2016-05-20T10:48:43.876Z,1001.37
2016-05-20T10:49:43.894Z,1001.38
2016-05-20T10:50:43.911Z,1001.41
2016-05-20T10:51:43.931Z,1001.43
2016-05-20T10:52:43.949Z,1001.43
2016-05-20T10:53:45.374Z,1001.34
2016-05-20T10:54:44.532Z,1001.42
2016-05-20T10:55:44.019Z,1001.42
2016-05-20T10:56:44.038Z,1001.41
2016-05-20T10:57:44.056Z,1001.47
2016-05-20T10:58:44.075Z,1001.48
2016-05-20T10:59:44.092Z,1001.44
2016-05-20T11:00:44.110Z,1001.44
2016-05-20T11:01:44.145Z,1001.48
2016-05-20T11:02:44.163Z,1001.5
2016-05-20T11:03:44.182Z,1001.48
2016-05-20T11:04:44.199Z,1001.51
2016-05-20T11:05:44.234Z,1001.5
2016-05-20T11:06:44.252Z,1001.52
2016-05-20T11:07:44.286Z,1001.51
2016-05-20T11:08:44.289Z,1001.51
2016-05-20T11:09:44.307Z,1001.59
2016-05-20T11:10:44.341Z,1001.61
2016-05-20T11:11:44.407Z,1001.54
2016-05-20T11:12:44.378Z,1001.64
2016-05-20T11:13:44.395Z,1001.63
2016-05-20T11:14:44.414Z,1001.63
2016-05-20T11:15:44.433Z,1001.63
2016-05-20T11:16:44.467Z,1001.62
2016-05-20T11:17:44.484Z,1001.62
2016-05-20T11:18:44.503Z,1001.66
2016-05-20T11:19:44.522Z,1001.69
2016-05-20T11:20:44.539Z,1001.68
2016-05-20T11:21:44.574Z,1001.66
2016-05-20T11:22:44.607Z,1001.64
2016-05-20T11:23:44.610Z,1001.68
2016-05-20T11:24:44.628Z,1001.68
2016-05-20T11:25:44.647Z,1001.67
2016-05-20T11:26:44.680Z,1001.69
2016-05-20T11:27:44.699Z,1001.7
2016-05-20T11:28:44.718Z,1001.7
2016-05-20T11:29:44.752Z,1001.66
2016-05-20T11:30:44.770Z,1001.63
2016-05-20T11:31:44.788Z,1001.66
2016-05-20T11:32:44.822Z,1001.62
2016-05-20T11:33:44.840Z,1001.64
2016-05-20T11:34:44.859Z,1001.73
2016-05-20T11:35:44.877Z,1001.63
2016-05-20T11:36:44.910Z,1001.62
2016-05-20T11:37:44.929Z,1001.54
2016-05-20T11:38:44.994Z,1001.57
2016-05-20T11:39:44.965Z,1001.54
2016-05-20T11:40:45.000Z,1001.5
2016-05-20T11:41:45.018Z,1001.53
2016-05-20T11:42:45.036Z,1001.46
2016-05-20T11:43:45.071Z,1001.47
2016-05-20T11:44:45.089Z,1001.36
2016-05-20T11:45:45.106Z,1001.29
2016-05-20T11:46:45.141Z,1001.27
2016-05-20T11:47:45.159Z,1001.27
2016-05-20T11:48:45.178Z,1001.2
2016-05-20T11:49:45.195Z,1001.2
2016-05-20T11:50:45.215Z,1001.17
2016-05-20T11:51:45.247Z,1001.15
2016-05-20T11:52:45.266Z,1001.19
2016-05-20T11:53:45.300Z,1001.25
2016-05-20T11:54:45.319Z,1001.3
2016-05-20T11:55:45.353Z,1001.36
2016-05-20T11:57:48.717Z,1001.19
2016-05-20T11:58:48.736Z,1001.24
2016-05-20T11:59:48.769Z,1001.29
2016-05-20T12:00:48.788Z,1001.33
2016-05-20T12:01:48.807Z,1001.4
2016-05-20T12:02:48.824Z,1001.34
2016-05-20T12:03:48.843Z,1001.42
2016-05-20T12:04:48.877Z,1001.3
2016-05-20T12:05:48.895Z,1001.32
2016-05-20T12:06:48.913Z,1001.24
2016-05-20T12:07:48.931Z,1001.2
2016-05-20T12:08:48.966Z,1001.16
2016-05-20T12:09:49.187Z,1001.18
2016-05-20T12:10:49.002Z,1001.14
2016-05-20T12:11:49.037Z,1001.19
2016-05-20T12:12:49.055Z,1001.21
2016-05-20T12:13:49.073Z,1001.27
2016-05-20T12:14:49.106Z,1001.22
2016-05-20T12:15:49.109Z,1001.29
2016-05-20T12:16:49.143Z,1001.36